createdAt,value
2019-02-25T00:00:10.087Z,97478.36
2019-02-25T00:02:58.779Z,97478.83
2019-02-25T00:05:47.288Z,97471.00
2019-02-25T00:08:35.359Z,97468.16
2019-02-25T00:11:23.795Z,97466.25
2019-02-25T00:14:12.171Z,97460.64
2019-02-25T00:17:00.693Z,97469.55
2019-02-25T00:19:49.422Z,97461.27
2019-02-25T00:22:38.439Z,97452.23
2019-02-25T00:25:27.117Z,97446.20
2019-02-25T00:28:15.055Z,97454.84
2019-02-25T00:31:03.684Z,97444.98
2019-02-25T00:33:52.205Z,97440.23
2019-02-25T00:36:41.066Z,97442.21
2019-02-25T00:39:29.752Z,97447.34
2019-02-25T00:42:18.507Z,97454.91
2019-02-25T00:45:07.283Z,97450.67
2019-02-25T00:47:55.851Z,97448.50
2019-02-25T00:50:44.925Z,97458.50
2019-02-25T00:53:33.818Z,97454.18
2019-02-25T00:56:22.315Z,97448.55
2019-02-25T00:59:10.498Z,97454.38
2019-02-25T01:01:59.045Z,97455.70
2019-02-25T01:04:47.651Z,97458.40
2019-02-25T01:07:36.291Z,97453.86
2019-02-25T01:10:24.921Z,97458.64
2019-02-25T01:13:13.138Z,97457.23
2019-02-25T01:16:01.960Z,97453.39
2019-02-25T01:18:50.528Z,97455.32
2019-02-25T01:21:39.041Z,97450.53
2019-02-25T01:24:27.351Z,97451.86
2019-02-25T01:27:15.639Z,97444.58
2019-02-25T01:30:05.887Z,97446.33
2019-02-25T01:32:55.643Z,97446.80
2019-02-25T01:35:44.726Z,97440.18
2019-02-25T01:38:33.259Z,97439.71
2019-02-25T01:41:22.108Z,97435.52
2019-02-25T01:44:10.787Z,97429.17
2019-02-25T01:46:59.589Z,97434.78
2019-02-25T01:49:48.217Z,97432.95
2019-02-25T01:52:36.984Z,97431.66
2019-02-25T01:55:25.587Z,97435.05
2019-02-25T01:58:14.543Z,97443.98
2019-02-25T02:01:03.598Z,97441.81
2019-02-25T02:03:52.554Z,97447.76
2019-02-25T02:06:40.983Z,97451.22
2019-02-25T02:09:30.089Z,97458.38
2019-02-25T02:12:19.099Z,97459.66
2019-02-25T02:15:10.673Z,97449.73
2019-02-25T02:18:00.031Z,97458.38
2019-02-25T02:20:48.772Z,97453.19
2019-02-25T02:23:37.582Z,97454.05
2019-02-25T02:26:26.356Z,97451.95
2019-02-25T02:29:15.261Z,97455.34
2019-02-25T02:32:03.755Z,97444.20
2019-02-25T02:34:52.826Z,97449.34
2019-02-25T02:37:41.656Z,97443.66
2019-02-25T02:40:30.446Z,97440.16
2019-02-25T02:43:19.352Z,97441.86
2019-02-25T02:46:15.705Z,97448.75
2019-02-25T02:49:05.270Z,97438.48
2019-02-25T02:51:53.586Z,97429.97
2019-02-25T02:54:41.797Z,97430.91
2019-02-25T02:57:30.457Z,97435.84
2019-02-25T03:00:19.568Z,97432.28
2019-02-25T03:03:08.269Z,97432.16
2019-02-25T03:05:56.874Z,97436.82
2019-02-25T03:08:46.644Z,97432.42
2019-02-25T03:11:35.672Z,97440.55
2019-02-25T03:14:24.009Z,97440.86
2019-02-25T03:17:12.615Z,97443.84
2019-02-25T03:20:01.390Z,97440.69
2019-02-25T03:22:49.946Z,97433.11
2019-02-25T03:25:38.682Z,97428.92
2019-02-25T03:28:26.978Z,97422.50
2019-02-25T03:31:15.489Z,97420.62
2019-02-25T03:34:03.662Z,97424.86
2019-02-25T03:36:52.231Z,97424.27
2019-02-25T03:39:40.857Z,97431.45
2019-02-25T03:42:29.541Z,97432.27
2019-02-25T03:45:18.712Z,97437.27
2019-02-25T03:48:07.036Z,97439.70
2019-02-25T03:50:55.795Z,97429.36
2019-02-25T03:53:44.083Z,97429.31
2019-02-25T03:56:32.571Z,97432.56
2019-02-25T03:59:21.628Z,97431.63
2019-02-25T04:02:10.135Z,97421.75
2019-02-25T04:04:59.008Z,97432.22
2019-02-25T04:07:47.660Z,97435.60
2019-02-25T04:10:36.375Z,97432.09
2019-02-25T04:13:25.279Z,97426.07
2019-02-25T04:16:13.386Z,97431.20
2019-02-25T04:19:02.351Z,97426.36
2019-02-25T04:21:50.468Z,97427.17
2019-02-25T04:24:38.902Z,97432.31
2019-02-25T04:27:27.500Z,97426.28
2019-02-25T04:30:16.384Z,97432.31
2019-02-25T04:33:04.799Z,97427.91
2019-02-25T04:35:52.844Z,97427.56
2019-02-25T04:38:41.310Z,97424.14
2019-02-25T04:41:29.878Z,97425.77
2019-02-25T04:44:18.492Z,97424.02
2019-02-25T04:47:07.376Z,97423.07
2019-02-25T04:49:55.816Z,97431.16
2019-02-25T04:52:44.032Z,97429.35
2019-02-25T04:55:33.166Z,97431.78
2019-02-25T04:58:22.062Z,97423.49
2019-02-25T05:01:10.710Z,97426.11
2019-02-25T05:03:59.256Z,97427.81
2019-02-25T05:06:48.082Z,97427.68
2019-02-25T05:09:36.202Z,97429.34
2019-02-25T05:12:24.626Z,97441.36
2019-02-25T05:15:15.377Z,97440.50
2019-02-25T05:18:04.338Z,97446.30
2019-02-25T05:20:53.148Z,97437.33
2019-02-25T05:23:41.976Z,97440.96
2019-02-25T05:26:30.408Z,97445.48
2019-02-25T05:29:18.857Z,97451.76
2019-02-25T05:32:07.182Z,97443.73
2019-02-25T05:34:55.830Z,97441.13
2019-02-25T05:37:44.552Z,97436.85
2019-02-25T05:40:33.393Z,97436.38
2019-02-25T05:43:21.722Z,97435.56
2019-02-25T05:46:10.445Z,97435.66
2019-02-25T05:48:59.058Z,97427.55
2019-02-25T05:51:47.976Z,97430.45
2019-02-25T05:54:36.415Z,97433.95
2019-02-25T05:57:24.544Z,97441.93
2019-02-25T06:00:17.816Z,97446.24
2019-02-25T06:03:06.849Z,97449.95
2019-02-25T06:05:55.892Z,97446.50
2019-02-25T06:08:44.714Z,97440.05
2019-02-25T06:11:33.801Z,97434.63
2019-02-25T06:14:22.142Z,97437.75
2019-02-25T06:17:10.133Z,97442.92
2019-02-25T06:19:58.832Z,97451.03
2019-02-25T06:22:47.558Z,97452.45
2019-02-25T06:25:38.983Z,97450.27
2019-02-25T06:28:28.092Z,97458.86
2019-02-25T06:31:16.679Z,97446.43
2019-02-25T06:34:05.529Z,97444.89
2019-02-25T06:36:54.320Z,97448.06
2019-02-25T06:39:43.135Z,97453.23
2019-02-25T06:42:31.930Z,97448.23
2019-02-25T06:45:20.644Z,97443.11
2019-02-25T06:48:09.528Z,97436.57
2019-02-25T06:50:58.613Z,97445.34
2019-02-25T06:53:47.570Z,97438.20
2019-02-25T06:56:36.494Z,97439.79
2019-02-25T06:59:25.520Z,97446.93
2019-02-25T07:02:13.664Z,97446.38
2019-02-25T07:05:12.355Z,97456.51
2019-02-25T07:08:06.599Z,97458.91
2019-02-25T07:11:13.855Z,97445.05
2019-02-25T07:14:07.955Z,97441.95
2019-02-25T07:17:33.705Z,97445.76
2019-02-25T07:20:42.708Z,97446.09
2019-02-25T07:23:56.867Z,97428.02
2019-02-25T07:26:55.156Z,97426.67
2019-02-25T07:30:08.604Z,97430.88
2019-02-25T07:33:15.849Z,97441.87
2019-02-25T07:36:21.746Z,97437.78
2019-02-25T07:39:25.173Z,97433.08
2019-02-25T07:42:33.329Z,97436.59
2019-02-25T07:45:56.344Z,97437.83
2019-02-25T07:49:02.866Z,97440.27
2019-02-25T07:52:28.785Z,97441.66
2019-02-25T07:55:32.715Z,97440.71
2019-02-25T07:58:26.452Z,97445.52
2019-02-25T08:01:25.475Z,97441.35
2019-02-25T08:04:35.512Z,97447.75
2019-02-25T08:07:42.485Z,97443.14
2019-02-25T08:10:37.499Z,97436.73
2019-02-25T08:13:48.432Z,97430.70
2019-02-25T08:17:01.424Z,97435.02
2019-02-25T08:20:14.850Z,97439.73
2019-02-25T08:23:22.766Z,97442.41
2019-02-25T08:26:29.729Z,97439.56
2019-02-25T08:29:40.589Z,97437.37
2019-02-25T08:32:43.820Z,97427.98
2019-02-25T08:36:37.015Z,97427.92
2019-02-25T08:39:33.504Z,97424.02
2019-02-25T08:42:45.315Z,97425.41
2019-02-25T08:45:45.295Z,97429.30
2019-02-25T08:48:37.664Z,97427.20
2019-02-25T08:51:26.301Z,97431.12
2019-02-25T08:54:14.360Z,97423.27
2019-02-25T08:57:03.458Z,97425.33
2019-02-25T08:59:52.221Z,97435.95
2019-02-25T09:02:41.194Z,97429.80
2019-02-25T09:05:29.429Z,97432.74
2019-02-25T09:08:17.537Z,97439.59
2019-02-25T09:11:13.904Z,97433.86
2019-02-25T09:13:56.097Z,97438.16
2019-02-25T09:16:44.754Z,97445.85
2019-02-25T09:19:33.247Z,97447.87
2019-02-25T09:22:21.914Z,97452.41
2019-02-25T09:25:10.510Z,97454.41
2019-02-25T09:27:58.586Z,97454.16
2019-02-25T09:30:47.336Z,97446.75
2019-02-25T09:33:36.513Z,97442.78
2019-02-25T09:36:25.728Z,97439.97
2019-02-25T09:39:16.677Z,97443.69
2019-02-25T09:42:04.767Z,97447.41
2019-02-25T09:44:53.347Z,97452.98
2019-02-25T09:47:41.959Z,97454.53
2019-02-25T09:50:31.618Z,97455.98
2019-02-25T09:53:19.731Z,97455.28
2019-02-25T09:56:08.960Z,97457.31
2019-02-25T09:58:57.631Z,97447.16
2019-02-25T10:01:46.823Z,97454.77
2019-02-25T10:04:36.132Z,97452.02
2019-02-25T10:07:24.417Z,97452.67
2019-02-25T10:10:13.857Z,97454.09
2019-02-25T10:13:02.631Z,97453.05
2019-02-25T10:15:50.861Z,97448.47
2019-02-25T10:18:39.796Z,97452.53
2019-02-25T10:21:28.176Z,97451.36
2019-02-25T10:24:16.778Z,97450.22
2019-02-25T10:27:05.034Z,97452.55
2019-02-25T10:29:53.656Z,97456.14
2019-02-25T10:32:42.567Z,97458.47
2019-02-25T10:35:31.418Z,97458.09
2019-02-25T10:38:21.617Z,97461.25
2019-02-25T10:41:09.836Z,97461.37
2019-02-25T10:44:00.251Z,97460.62
2019-02-25T10:46:49.627Z,97455.48
2019-02-25T10:49:38.492Z,97461.63
2019-02-25T10:52:27.107Z,97461.73
2019-02-25T10:55:23.136Z,97459.59
2019-02-25T10:58:11.393Z,97448.33
2019-02-25T11:01:00.228Z,97447.08
2019-02-25T11:03:49.971Z,97444.94
2019-02-25T11:06:38.909Z,97442.33
2019-02-25T11:09:50.377Z,97442.36
2019-02-25T11:12:40.492Z,97442.39
2019-02-25T11:15:31.531Z,97441.58
2019-02-25T11:18:22.455Z,97432.42
2019-02-25T11:21:10.771Z,97434.61
2019-02-25T11:24:00.085Z,97429.80
2019-02-25T11:26:48.988Z,97424.16
2019-02-25T11:29:39.845Z,97421.95
2019-02-25T11:32:28.156Z,97416.23
2019-02-25T11:35:17.404Z,97417.51
2019-02-25T11:38:05.788Z,97413.62
2019-02-25T11:40:54.559Z,97413.11
2019-02-25T11:43:45.363Z,97410.89
2019-02-25T11:46:33.138Z,97410.81
2019-02-25T11:49:21.808Z,97399.02
2019-02-25T11:52:11.042Z,97399.37
2019-02-25T11:54:59.829Z,97394.03
2019-02-25T11:57:48.854Z,97392.11
2019-02-25T12:00:37.406Z,97398.12
2019-02-25T12:03:26.160Z,97392.38
2019-02-25T12:06:14.382Z,97395.40
2019-02-25T12:09:02.392Z,97392.10
2019-02-25T12:11:50.536Z,97391.86
2019-02-25T12:14:39.798Z,97388.91
2019-02-25T12:17:28.229Z,97388.66
2019-02-25T12:20:17.261Z,97384.47
2019-02-25T12:23:06.096Z,97381.98
2019-02-25T12:25:54.793Z,97376.84
2019-02-25T12:28:43.913Z,97377.27
2019-02-25T12:31:32.136Z,97379.62
2019-02-25T12:34:20.769Z,97379.44
2019-02-25T12:37:09.075Z,97376.86
2019-02-25T12:39:57.403Z,97375.39
2019-02-25T12:42:46.508Z,97375.53
2019-02-25T12:45:35.263Z,97375.72
2019-02-25T12:48:24.428Z,97375.79
2019-02-25T12:51:13.345Z,97375.79
2019-02-25T12:54:01.448Z,97377.43
2019-02-25T12:56:49.890Z,97374.69
2019-02-25T12:59:38.335Z,97369.16
2019-02-25T13:02:27.196Z,97358.39
2019-02-25T13:05:18.016Z,97355.56
2019-02-25T13:08:07.130Z,97346.41
2019-02-25T13:10:55.852Z,97346.41
2019-02-25T13:13:44.787Z,97346.04
2019-02-25T13:16:33.499Z,97339.25
2019-02-25T13:19:22.343Z,97328.30
2019-02-25T13:22:10.600Z,97319.90
2019-02-25T13:25:00.714Z,97312.00
2019-02-25T13:27:51.824Z,97314.08
2019-02-25T13:30:39.841Z,97310.11
2019-02-25T13:33:28.906Z,97305.41
2019-02-25T13:36:17.985Z,97302.92
2019-02-25T13:39:08.307Z,97298.75
2019-02-25T13:41:56.723Z,97308.43
2019-02-25T13:44:45.256Z,97302.45
2019-02-25T13:47:34.089Z,97305.52
2019-02-25T13:50:23.157Z,97296.09
2019-02-25T13:53:11.652Z,97294.95
2019-02-25T13:56:01.149Z,97291.77
2019-02-25T13:58:49.879Z,97289.25
2019-02-25T14:01:38.567Z,97282.45
2019-02-25T14:04:27.782Z,97283.20
2019-02-25T14:07:16.333Z,97287.39
2019-02-25T14:10:07.838Z,97270.47
2019-02-25T14:12:56.199Z,97279.64
2019-02-25T14:15:44.951Z,97277.61
2019-02-25T14:18:33.948Z,97280.27
2019-02-25T14:21:22.522Z,97283.42
2019-02-25T14:24:11.585Z,97282.27
2019-02-25T14:26:59.707Z,97275.61
2019-02-25T14:29:48.821Z,97273.88
2019-02-25T14:32:37.701Z,97265.45
2019-02-25T14:35:28.525Z,97263.31
2019-02-25T14:38:18.386Z,97259.67
2019-02-25T14:41:07.231Z,97247.40
2019-02-25T14:43:58.752Z,97252.52
2019-02-25T14:46:47.219Z,97244.87
2019-02-25T14:49:37.742Z,97244.87
2019-02-25T14:52:26.844Z,97243.55
2019-02-25T14:55:16.445Z,97237.82
2019-02-25T14:58:07.533Z,97235.08
2019-02-25T15:00:56.268Z,97221.52
2019-02-25T15:03:44.701Z,97229.26
2019-02-25T15:06:34.755Z,97222.98
2019-02-25T15:09:23.222Z,97225.56
2019-02-25T15:12:12.353Z,97226.59
2019-02-25T15:15:02.691Z,97224.91
2019-02-25T15:17:52.762Z,97221.81
2019-02-25T15:20:41.631Z,97221.35
2019-02-25T15:23:30.040Z,97218.24
2019-02-25T15:26:19.871Z,97215.94
2019-02-25T15:29:09.338Z,97208.44
2019-02-25T15:31:59.316Z,97205.06
2019-02-25T15:34:50.756Z,97210.26
2019-02-25T15:37:40.628Z,97210.66
2019-02-25T15:40:29.537Z,97204.08
2019-02-25T15:43:20.345Z,97209.23
2019-02-25T15:46:08.147Z,97208.17
2019-02-25T15:48:56.529Z,97209.69
2019-02-25T15:51:51.369Z,97215.94
2019-02-25T15:54:41.406Z,97216.53
2019-02-25T15:57:30.763Z,97209.84
2019-02-25T16:00:21.264Z,97205.73
2019-02-25T16:03:11.675Z,97199.47
2019-02-25T16:06:03.944Z,97195.83
2019-02-25T16:08:52.139Z,97192.59
2019-02-25T16:11:43.997Z,97194.51
2019-02-25T16:14:32.453Z,97189.90
2019-02-25T16:17:22.332Z,97187.86
2019-02-25T16:20:11.603Z,97194.13
2019-02-25T16:23:00.478Z,97206.50
2019-02-25T16:25:52.636Z,97201.90
2019-02-25T16:28:41.567Z,97208.62
2019-02-25T16:31:32.690Z,97212.66
2019-02-25T16:34:20.904Z,97206.66
2019-02-25T16:37:12.039Z,97208.11
2019-02-25T16:40:03.075Z,97216.48
2019-02-25T16:42:50.962Z,97221.38
2019-02-25T16:45:41.872Z,97221.02
2019-02-25T16:48:32.065Z,97221.49
2019-02-25T16:51:20.214Z,97225.94
2019-02-25T16:54:11.001Z,97226.05
2019-02-25T16:56:59.249Z,97226.13
2019-02-25T16:59:48.481Z,97229.72
2019-02-25T17:02:38.467Z,97237.62
2019-02-25T17:05:27.219Z,97240.34
2019-02-25T17:08:19.090Z,97241.22
2019-02-25T17:11:08.175Z,97242.61
2019-02-25T17:13:57.736Z,97242.20
2019-02-25T17:16:46.838Z,97246.55
2019-02-25T17:19:35.791Z,97248.74
2019-02-25T17:22:25.263Z,97253.98
2019-02-25T17:25:13.829Z,97257.90
2019-02-25T17:28:02.851Z,97268.34
2019-02-25T17:30:52.731Z,97278.33
2019-02-25T17:33:41.666Z,97286.57
2019-02-25T17:36:30.018Z,97283.06
2019-02-25T17:39:18.811Z,97283.91
2019-02-25T17:42:09.258Z,97280.83
2019-02-25T17:44:59.881Z,97286.06
2019-02-25T17:47:48.631Z,97286.04
2019-02-25T17:50:37.578Z,97286.86
2019-02-25T17:53:28.381Z,97287.25
2019-02-25T17:56:18.632Z,97280.28
2019-02-25T17:59:09.646Z,97275.02
2019-02-25T18:01:58.404Z,97277.59
2019-02-25T18:04:47.471Z,97277.55
2019-02-25T18:07:37.740Z,97281.02
2019-02-25T18:10:28.972Z,97289.63
2019-02-25T18:13:17.479Z,97293.92
2019-02-25T18:16:07.988Z,97295.66
2019-02-25T18:18:56.875Z,97292.91
2019-02-25T18:21:46.309Z,97285.02
2019-02-25T18:24:35.544Z,97297.56
2019-02-25T18:27:24.313Z,97301.05
2019-02-25T18:30:13.965Z,97302.28
2019-02-25T18:33:04.638Z,97302.23
2019-02-25T18:35:52.237Z,97306.51
2019-02-25T18:38:40.968Z,97302.11
2019-02-25T18:41:33.614Z,97299.38
2019-02-25T18:44:19.863Z,97286.77
2019-02-25T18:47:08.591Z,97275.05
2019-02-25T18:49:58.800Z,97269.82
2019-02-25T18:52:48.146Z,97273.30
2019-02-25T18:55:37.641Z,97277.56
2019-02-25T18:58:26.476Z,97271.86
2019-02-25T19:01:17.560Z,97272.19
2019-02-25T19:04:08.054Z,97279.44
2019-02-25T19:06:59.788Z,97282.42
2019-02-25T19:09:49.344Z,97280.23
2019-02-25T19:12:38.772Z,97286.67
2019-02-25T19:15:27.216Z,97292.64
2019-02-25T19:18:17.734Z,97286.46
2019-02-25T19:21:08.705Z,97282.91
2019-02-25T19:23:57.540Z,97273.45
2019-02-25T19:26:47.407Z,97273.34
2019-02-25T19:29:37.241Z,97268.48
2019-02-25T19:32:25.803Z,97266.66
2019-02-25T19:35:15.326Z,97268.74
2019-02-25T19:38:05.814Z,97269.48
2019-02-25T19:40:55.941Z,97268.95
2019-02-25T19:43:45.256Z,97270.62
2019-02-25T19:46:34.364Z,97280.55
2019-02-25T19:49:23.418Z,97284.77
2019-02-25T19:52:12.495Z,97285.93
2019-02-25T19:55:05.626Z,97288.39
2019-02-25T19:57:52.553Z,97292.23
2019-02-25T20:00:41.544Z,97304.66
2019-02-25T20:03:32.884Z,97301.88
2019-02-25T20:06:21.565Z,97302.23
2019-02-25T20:09:12.914Z,97303.44
2019-02-25T20:12:02.551Z,97309.91
2019-02-25T20:14:51.400Z,97316.25
2019-02-25T20:17:39.608Z,97316.70
2019-02-25T20:20:36.281Z,97328.25
2019-02-25T20:23:26.570Z,97328.56
2019-02-25T20:26:15.525Z,97322.07
2019-02-25T20:29:06.354Z,97324.52
2019-02-25T20:31:56.182Z,97332.23
2019-02-25T20:34:46.334Z,97326.59
2019-02-25T20:37:35.966Z,97329.70
2019-02-25T20:40:28.232Z,97328.05
2019-02-25T20:43:19.345Z,97324.80
2019-02-25T20:46:08.627Z,97330.72
2019-02-25T20:48:57.778Z,97330.09
2019-02-25T20:51:48.370Z,97331.66
2019-02-25T20:54:40.707Z,97332.85
2019-02-25T20:57:29.538Z,97327.95
2019-02-25T21:00:20.297Z,97333.52
2019-02-25T21:03:12.094Z,97341.61
2019-02-25T21:05:59.800Z,97337.88
2019-02-25T21:08:48.755Z,97340.80
2019-02-25T21:11:37.898Z,97347.66
2019-02-25T21:14:29.513Z,97344.55
2019-02-25T21:17:17.051Z,97345.34
2019-02-25T21:20:08.353Z,97344.03
2019-02-25T21:23:02.140Z,97343.26
2019-02-25T21:25:47.883Z,97341.90
2019-02-25T21:28:38.053Z,97343.59
2019-02-25T21:31:26.620Z,97341.45
2019-02-25T21:34:17.761Z,97338.57
2019-02-25T21:37:05.258Z,97330.55
2019-02-25T21:39:53.980Z,97330.80
2019-02-25T21:42:44.353Z,97328.16
2019-02-25T21:45:32.826Z,97325.52
2019-02-25T21:48:25.055Z,97328.92
2019-02-25T21:51:12.355Z,97327.63
2019-02-25T21:54:04.438Z,97331.83
2019-02-25T21:56:52.378Z,97335.58
2019-02-25T21:59:41.476Z,97329.73
2019-02-25T22:02:30.780Z,97328.75
2019-02-25T22:05:21.358Z,97321.45
2019-02-25T22:08:09.613Z,97323.53
2019-02-25T22:11:11.742Z,97322.53
2019-02-25T22:13:49.000Z,97315.89
2019-02-25T22:16:44.119Z,97320.99
2019-02-25T22:19:28.122Z,97325.63
2019-02-25T22:22:16.820Z,97328.06
2019-02-25T22:25:06.629Z,97332.70
2019-02-25T22:27:56.206Z,97330.89
2019-02-25T22:30:47.385Z,97327.77
2019-02-25T22:33:35.702Z,97322.66
2019-02-25T22:36:24.510Z,97313.19
2019-02-25T22:39:13.199Z,97312.25
2019-02-25T22:42:03.568Z,97315.47
2019-02-25T22:44:54.030Z,97311.27
2019-02-25T22:47:42.160Z,97315.98
2019-02-25T22:50:31.216Z,97310.37
2019-02-25T22:53:21.178Z,97310.75
2019-02-25T22:56:13.408Z,97299.20
2019-02-25T22:59:02.694Z,97301.79
2019-02-25T23:01:52.617Z,97301.47
2019-02-25T23:04:40.984Z,97307.46
2019-02-25T23:07:30.879Z,97298.75
2019-02-25T23:10:21.839Z,97304.30
2019-02-25T23:13:10.211Z,97305.05
2019-02-25T23:15:59.036Z,97302.01
2019-02-25T23:18:48.038Z,97301.09
2019-02-25T23:21:38.339Z,97302.74
2019-02-25T23:24:30.021Z,97309.43
2019-02-25T23:27:17.792Z,97305.85
2019-02-25T23:30:08.626Z,97317.41
2019-02-25T23:32:56.864Z,97324.75
2019-02-25T23:35:46.963Z,97324.69
2019-02-25T23:38:36.601Z,97326.79
2019-02-25T23:41:25.367Z,97338.69
2019-02-25T23:44:15.143Z,97342.39
2019-02-25T23:47:04.859Z,97347.86
2019-02-25T23:49:53.693Z,97349.44
2019-02-25T23:52:42.197Z,97357.09
2019-02-25T23:55:30.908Z,97357.98
2019-02-25T23:58:20.154Z,97354.11
